sensor_id;sensor_type;location;lat;lon;timestamp;pressure;altitude;pressure_sealevel;temperature;humidity
21980;BME280;11154;48.558;9.234;2022-08-21T00:01:38;97669.84;;;18.25;100.00
21980;BME280;11154;48.558;9.234;2022-08-21T00:03:41;97667.78;;;18.21;100.00
21980;BME280;11154;48.558;9.234;2022-08-21T00:05:47;97670.03;;;18.17;100.00
21980;BME280;11154;48.558;9.234;2022-08-21T00:07:50;97672.09;;;18.15;100.00
21980;BME280;11154;48.558;9.234;2022-08-21T00:09:52;97666.25;;;18.06;100.00
21980;BME280;11154;48.558;9.234;2022-08-21T00:11:54;97662.13;;;18.09;100.00
21980;BME280;11154;48.558;9.234;2022-08-21T00:13:55;97651.38;;;18.09;100.00
21980;BME280;11154;48.558;9.234;2022-08-21T00:15:57;97665.44;;;18.05;100.00
21980;BME280;11154;48.558;9.234;2022-08-21T00:17:59;97655.47;;;18.06;100.00
21980;BME280;11154;48.558;9.234;2022-08-21T00:20:03;97648.88;;;18.02;100.00
21980;BME280;11154;48.558;9.234;2022-08-21T00:22:05;97652.97;;;17.91;100.00
21980;BME280;11154;48.558;9.234;2022-08-21T00:24:07;97650.72;;;17.95;100.00
21980;BME280;11154;48.558;9.234;2022-08-21T00:26:09;97645.09;;;17.83;100.00
21980;BME280;11154;48.558;9.234;2022-08-21T00:28:11;97652.56;;;17.81;100.00
21980;BME280;11154;48.558;9.234;2022-08-21T00:30:16;97657.72;;;17.76;100.00
21980;BME280;11154;48.558;9.234;2022-08-21T00:32:20;97659.97;;;17.73;100.00
21980;BME280;11154;48.558;9.234;2022-08-21T00:34:22;97659.97;;;17.73;100.00
21980;BME280;11154;48.558;9.234;2022-08-21T00:36:25;97655.81;;;17.64;100.00
21980;BME280;11154;48.558;9.234;2022-08-21T00:38:27;97652.91;;;17.59;100.00
21980;BME280;11154;48.558;9.234;2022-08-21T00:40:31;97651.44;;;17.63;100.00
21980;BME280;11154;48.558;9.234;2022-08-21T00:42:34;97659.13;;;17.66;100.00
21980;BME280;11154;48.558;9.234;2022-08-21T00:44:36;97660.38;;;17.63;100.00
21980;BME280;11154;48.558;9.234;2022-08-21T00:46:38;97650.84;;;17.67;100.00
21980;BME280;11154;48.558;9.234;2022-08-21T00:48:40;97647.94;;;17.69;100.00
21980;BME280;11154;48.558;9.234;2022-08-21T00:50:46;97654.34;;;17.68;100.00
21980;BME280;11154;48.558;9.234;2022-08-21T00:52:51;97652.09;;;17.65;100.00
21980;BME280;11154;48.558;9.234;2022-08-21T00:54:54;97647.94;;;17.69;100.00
21980;BME280;11154;48.558;9.234;2022-08-21T00:57:00;97648.59;;;17.71;100.00
21980;BME280;11154;48.558;9.234;2022-08-21T00:59:03;97647.34;;;17.73;100.00
21980;BME280;11154;48.558;9.234;2022-08-21T01:01:06;97647.56;;;17.72;100.00
21980;BME280;11154;48.558;9.234;2022-08-21T01:03:10;97648.16;;;17.74;100.00
21980;BME280;11154;48.558;9.234;2022-08-21T01:05:13;97642.19;;;17.72;100.00
21980;BME280;11154;48.558;9.234;2022-08-21T01:07:15;97646.28;;;17.68;100.00
21980;BME280;11154;48.558;9.234;2022-08-21T01:09:19;97651.66;;;17.68;100.00
21980;BME280;11154;48.558;9.234;2022-08-21T01:11:20;97641.31;;;17.65;100.00
21980;BME280;11154;48.558;9.234;2022-08-21T01:13:23;97646.91;;;17.63;100.00
21980;BME280;11154;48.558;9.234;2022-08-21T01:15:29;97648.75;;;17.63;100.00
21980;BME280;11154;48.558;9.234;2022-08-21T01:17:32;97645.44;;;17.61;100.00
21980;BME280;11154;48.558;9.234;2022-08-21T01:19:34;97650.00;;;17.60;100.00
21980;BME280;11154;48.558;9.234;2022-08-21T01:21:37;97652.69;;;17.60;100.00
21980;BME280;11154;48.558;9.234;2022-08-21T01:23:42;97645.84;;;17.58;100.00
21980;BME280;11154;48.558;9.234;2022-08-21T01:25:44;97650.81;;;17.61;100.00
21980;BME280;11154;48.558;9.234;2022-08-21T01:27:46;97644.81;;;17.59;100.00
21980;BME280;11154;48.558;9.234;2022-08-21T01:29:52;97643.38;;;17.56;100.00
21980;BME280;11154;48.558;9.234;2022-08-21T01:31:56;97649.56;;;17.50;100.00
21980;BME280;11154;48.558;9.234;2022-08-21T01:33:59;97642.94;;;17.53;100.00
21980;BME280;11154;48.558;9.234;2022-08-21T01:36:00;97634.25;;;17.51;100.00
21980;BME280;11154;48.558;9.234;2022-08-21T01:38:04;97642.72;;;17.48;100.00
21980;BME280;11154;48.558;9.234;2022-08-21T01:40:08;97644.34;;;17.49;100.00
21980;BME280;11154;48.558;9.234;2022-08-21T01:42:10;97639.78;;;17.43;100.00
21980;BME280;11154;48.558;9.234;2022-08-21T01:44:12;97639.78;;;17.43;100.00
21980;BME280;11154;48.558;9.234;2022-08-21T01:46:14;97631.72;;;17.43;100.00
21980;BME280;11154;48.558;9.234;2022-08-21T01:48:16;97637.50;;;17.40;100.00
21980;BME280;11154;48.558;9.234;2022-08-21T01:50:19;97639.56;;;17.38;100.00
21980;BME280;11154;48.558;9.234;2022-08-21T01:52:21;97634.59;;;17.35;100.00
21980;BME280;11154;48.558;9.234;2022-08-21T01:54:24;97635.00;;;17.38;100.00
21980;BME280;11154;48.558;9.234;2022-08-21T01:56:26;97629.84;;;17.37;100.00
21980;BME280;11154;48.558;9.234;2022-08-21T01:58:29;97633.81;;;17.41;100.00
21980;BME280;11154;48.558;9.234;2022-08-21T02:00:30;97636.28;;;17.42;100.00
21980;BME280;11154;48.558;9.234;2022-08-21T02:02:32;97635.00;;;17.38;100.00
21980;BME280;11154;48.558;9.234;2022-08-21T02:04:34;97630.66;;;17.31;100.00
21980;BME280;11154;48.558;9.234;2022-08-21T02:06:36;97626.78;;;17.06;100.00
21980;BME280;11154;48.558;9.234;2022-08-21T02:08:38;97621.75;;;16.90;100.00
21980;BME280;11154;48.558;9.234;2022-08-21T02:10:41;97616.53;;;16.89;100.00
21980;BME280;11154;48.558;9.234;2022-08-21T02:12:43;97613.25;;;16.93;100.00
21980;BME280;11154;48.558;9.234;2022-08-21T02:14:45;97612.63;;;16.91;100.00
21980;BME280;11154;48.558;9.234;2022-08-21T02:16:46;97614.13;;;16.94;100.00
21980;BME280;11154;48.558;9.234;2022-08-21T02:18:48;97613.47;;;16.92;100.00
21980;BME280;11154;48.558;9.234;2022-08-21T02:20:50;97622.13;;;16.87;100.00
21980;BME280;11154;48.558;9.234;2022-08-21T02:22:53;97616.16;;;16.92;100.00
21980;BME280;11154;48.558;9.234;2022-08-21T02:24:54;97616.97;;;16.92;100.00
21980;BME280;11154;48.558;9.234;2022-08-21T02:26:57;97607.44;;;16.83;100.00
21980;BME280;11154;48.558;9.234;2022-08-21T02:28:59;97616.44;;;16.69;100.00
21980;BME280;11154;48.558;9.234;2022-08-21T02:31:01;97608.06;;;16.52;100.00
21980;BME280;11154;48.558;9.234;2022-08-21T02:33:04;97612.72;;;16.43;100.00
21980;BME280;11154;48.558;9.234;2022-08-21T02:35:06;97607.03;;;16.53;100.00
21980;BME280;11154;48.558;9.234;2022-08-21T02:37:08;97609.31;;;16.56;100.00
21980;BME280;11154;48.558;9.234;2022-08-21T02:39:10;97610.56;;;16.60;100.00
21980;BME280;11154;48.558;9.234;2022-08-21T02:41:14;97608.97;;;16.65;100.00
21980;BME280;11154;48.558;9.234;2022-08-21T02:43:18;97606.13;;;16.73;100.00
21980;BME280;11154;48.558;9.234;2022-08-21T02:45:20;97597.50;;;16.77;100.00
21980;BME280;11154;48.558;9.234;2022-08-21T02:47:22;97606.13;;;16.73;100.00
21980;BME280;11154;48.558;9.234;2022-08-21T02:49:23;97613.69;;;16.63;100.00
21980;BME280;11154;48.558;9.234;2022-08-21T02:51:25;97603.59;;;16.65;100.00
21980;BME280;11154;48.558;9.234;2022-08-21T02:53:27;97610.84;;;16.64;100.00
21980;BME280;11154;48.558;9.234;2022-08-21T02:55:31;97611.00;;;16.63;100.00
21980;BME280;11154;48.558;9.234;2022-08-21T02:57:33;97609.16;;;16.63;100.00
21980;BME280;11154;48.558;9.234;2022-08-21T02:59:37;97622.19;;;16.66;100.00
21980;BME280;11154;48.558;9.234;2022-08-21T03:01:39;97605.69;;;16.69;100.00
21980;BME280;11154;48.558;9.234;2022-08-21T03:03:42;97613.97;;;16.68;100.00
21980;BME280;11154;48.558;9.234;2022-08-21T03:05:44;97611.84;;;16.63;100.00
21980;BME280;11154;48.558;9.234;2022-08-21T03:07:46;97613.53;;;16.64;100.00
21980;BME280;11154;48.558;9.234;2022-08-21T03:09:48;97607.75;;;16.67;100.00
21980;BME280;11154;48.558;9.234;2022-08-21T03:11:50;97611.28;;;16.68;100.00
21980;BME280;11154;48.558;9.234;2022-08-21T03:13:52;97614.41;;;16.71;100.00
21980;BME280;11154;48.558;9.234;2022-08-21T03:15:56;97606.06;;;16.66;100.00
21980;BME280;11154;48.558;9.234;2022-08-21T03:17:58;97603.81;;;16.63;100.00
21980;BME280;11154;48.558;9.234;2022-08-21T03:20:00;97613.09;;;16.61;100.00
21980;BME280;11154;48.558;9.234;2022-08-21T03:22:03;97613.69;;;16.63;100.00
21980;BME280;11154;48.558;9.234;2022-08-21T03:24:05;97612.88;;;16.63;100.00
21980;BME280;11154;48.558;9.234;2022-08-21T03:26:09;97615.09;;;16.53;100.00
21980;BME280;11154;48.558;9.234;2022-08-21T03:28:15;97618.38;;;16.55;100.00
21980;BME280;11154;48.558;9.234;2022-08-21T03:30:20;97612.22;;;16.54;100.00
21980;BME280;11154;48.558;9.234;2022-08-21T03:32:24;97618.00;;;16.58;100.00
21980;BME280;11154;48.558;9.234;2022-08-21T03:34:25;97611.78;;;16.57;100.00
21980;BME280;11154;48.558;9.234;2022-08-21T03:36:27;97616.34;;;16.57;100.00
21980;BME280;11154;48.558;9.234;2022-08-21T03:38:30;97617.56;;;16.54;100.00
21980;BME280;11154;48.558;9.234;2022-08-21T03:40:32;97619.63;;;16.52;100.00
21980;BME280;11154;48.558;9.234;2022-08-21T03:42:34;97616.13;;;16.52;100.00
21980;BME280;11154;48.558;9.234;2022-08-21T03:44:37;97620.25;;;16.54;100.00
21980;BME280;11154;48.558;9.234;2022-08-21T03:46:39;97623.16;;;16.53;100.00
21980;BME280;11154;48.558;9.234;2022-08-21T03:48:43;97623.31;;;16.51;100.00
21980;BME280;11154;48.558;9.234;2022-08-21T03:50:45;97622.50;;;16.51;100.00
21980;BME280;11154;48.558;9.234;2022-08-21T03:52:47;97622.88;;;16.48;100.00
21980;BME280;11154;48.558;9.234;2022-08-21T03:54:49;97616.03;;;16.45;100.00
21980;BME280;11154;48.558;9.234;2022-08-21T03:56:51;97624.75;;;16.47;100.00
21980;BME280;11154;48.558;9.234;2022-08-21T03:58:52;97617.41;;;16.35;100.00
21980;BME280;11154;48.558;9.234;2022-08-21T04:00:58;97624.72;;;16.20;100.00
21980;BME280;11154;48.558;9.234;2022-08-21T04:03:01;97628.50;;;16.04;100.00
21980;BME280;11154;48.558;9.234;2022-08-21T04:05:05;97626.75;;;15.97;100.00
21980;BME280;11154;48.558;9.234;2022-08-21T04:07:08;97628.03;;;16.01;100.00
21980;BME280;11154;48.558;9.234;2022-08-21T04:09:10;97629.31;;;16.05;100.00
21980;BME280;11154;48.558;9.234;2022-08-21T04:11:12;97634.47;;;16.06;100.00
21980;BME280;11154;48.558;9.234;2022-08-21T04:13:15;97638.50;;;15.96;100.00
21980;BME280;11154;48.558;9.234;2022-08-21T04:15:16;97637.94;;;16.00;100.00
21980;BME280;11154;48.558;9.234;2022-08-21T04:17:18;97640.38;;;15.95;100.00
21980;BME280;11154;48.558;9.234;2022-08-21T04:19:20;97644.25;;;15.93;100.00
21980;BME280;11154;48.558;9.234;2022-08-21T04:21:23;97643.16;;;15.88;100.00
21980;BME280;11154;48.558;9.234;2022-08-21T04:23:25;97638.03;;;15.92;100.00
21980;BME280;11154;48.558;9.234;2022-08-21T04:25:27;97641.63;;;15.99;100.00
21980;BME280;11154;48.558;9.234;2022-08-21T04:27:29;97642.69;;;15.98;100.00
21980;BME280;11154;48.558;9.234;2022-08-21T04:29:30;97644.47;;;15.91;100.00
21980;BME280;11154;48.558;9.234;2022-08-21T04:31:32;97650.00;;;15.90;100.00
21980;BME280;11154;48.558;9.234;2022-08-21T04:33:34;97651.91;;;15.96;100.00
21980;BME280;11154;48.558;9.234;2022-08-21T04:35:36;97653.13;;;15.93;100.00
21980;BME280;11154;48.558;9.234;2022-08-21T04:37:39;97651.75;;;15.97;100.00
21980;BME280;11154;48.558;9.234;2022-08-21T04:39:41;97652.97;;;15.95;100.00
21980;BME280;11154;48.558;9.234;2022-08-21T04:41:43;97660.81;;;15.96;100.00
21980;BME280;11154;48.558;9.234;2022-08-21T04:43:45;97655.00;;;15.93;100.00
21980;BME280;11154;48.558;9.234;2022-08-21T04:45:48;97658.31;;;15.95;100.00
21980;BME280;11154;48.558;9.234;2022-08-21T04:47:51;97658.78;;;15.98;100.00
21980;BME280;11154;48.558;9.234;2022-08-21T04:49:53;97667.06;;;16.03;100.00
21980;BME280;11154;48.558;9.234;2022-08-21T04:51:55;97662.91;;;16.01;100.00
21980;BME280;11154;48.558;9.234;2022-08-21T04:54:00;97662.91;;;16.01;100.00
21980;BME280;11154;48.558;9.234;2022-08-21T04:56:05;97659.59;;;15.99;100.00
21980;BME280;11154;48.558;9.234;2022-08-21T04:58:09;97665.78;;;15.99;100.00
21980;BME280;11154;48.558;9.234;2022-08-21T05:00:14;97665.59;;;16.01;100.00
21980;BME280;11154;48.558;9.234;2022-08-21T05:02:18;97671.59;;;16.03;100.00
21980;BME280;11154;48.558;9.234;2022-08-21T05:04:22;97667.06;;;16.03;100.00
21980;BME280;11154;48.558;9.234;2022-08-21T05:06:28;97671.22;;;16.06;100.00
21980;BME280;11154;48.558;9.234;2022-08-21T05:08:32;97663.16;;;16.06;100.00
21980;BME280;11154;48.558;9.234;2022-08-21T05:10:36;97675.13;;;16.03;100.00
21980;BME280;11154;48.558;9.234;2022-08-21T05:12:38;97673.25;;;16.04;100.00
21980;BME280;11154;48.558;9.234;2022-08-21T05:14:42;97676.50;;;15.99;100.00
21980;BME280;11154;48.558;9.234;2022-08-21T05:16:43;97677.53;;;15.98;100.00
21980;BME280;11154;48.558;9.234;2022-08-21T05:18:45;97674.66;;;16.00;100.00
21980;BME280;11154;48.558;9.234;2022-08-21T05:20:47;97679.84;;;16.01;100.00
21980;BME280;11154;48.558;9.234;2022-08-21T05:22:49;97672.81;;;16.00;100.00
21980;BME280;11154;48.558;9.234;2022-08-21T05:24:51;97677.09;;;15.95;100.00
21980;BME280;11154;48.558;9.234;2022-08-21T05:26:54;97687.44;;;15.98;100.00
21980;BME280;11154;48.558;9.234;2022-08-21T05:28:56;97679.25;;;16.06;100.00
21980;BME280;11154;48.558;9.234;2022-08-21T05:30:58;97683.47;;;16.15;100.00
21980;BME280;11154;48.558;9.234;2022-08-21T05:33:01;97686.53;;;16.12;100.00
21980;BME280;11154;48.558;9.234;2022-08-21T05:35:04;97681.53;;;16.09;100.00
21980;BME280;11154;48.558;9.234;2022-08-21T05:37:06;97677.84;;;16.10;100.00
21980;BME280;11154;48.558;9.234;2022-08-21T05:39:08;97682.44;;;16.16;100.00
21980;BME280;11154;48.558;9.234;2022-08-21T05:41:10;97684.75;;;16.19;100.00
21980;BME280;11154;48.558;9.234;2022-08-21T05:43:13;97681.22;;;16.18;100.00
21980;BME280;11154;48.558;9.234;2022-08-21T05:45:15;97684.34;;;16.22;100.00
21980;BME280;11154;48.558;9.234;2022-08-21T05:47:18;97685.41;;;16.21;100.00
21980;BME280;11154;48.558;9.234;2022-08-21T05:49:19;97682.31;;;16.24;100.00
21980;BME280;11154;48.558;9.234;2022-08-21T05:51:21;97683.34;;;16.23;100.00
21980;BME280;11154;48.558;9.234;2022-08-21T05:53:24;97688.34;;;16.26;100.00
21980;BME280;11154;48.558;9.234;2022-08-21T05:55:26;97693.06;;;16.24;100.00
21980;BME280;11154;48.558;9.234;2022-08-21T05:57:28;97688.34;;;16.26;100.00
21980;BME280;11154;48.558;9.234;2022-08-21T05:59:31;97686.31;;;16.28;100.00
21980;BME280;11154;48.558;9.234;2022-08-21T06:01:32;97687.59;;;16.32;100.00
21980;BME280;11154;48.558;9.234;2022-08-21T06:03:36;97679.53;;;16.32;100.00
21980;BME280;11154;48.558;9.234;2022-08-21T06:05:38;97689.50;;;16.38;100.00
21980;BME280;11154;48.558;9.234;2022-08-21T06:07:40;97687.84;;;16.37;100.00
21980;BME280;11154;48.558;9.234;2022-08-21T06:09:42;97683.13;;;16.39;100.00
21980;BME280;11154;48.558;9.234;2022-08-21T06:11:43;97678.44;;;16.47;100.00
21980;BME280;11154;48.558;9.234;2022-08-21T06:13:45;97689.66;;;16.57;100.00
21980;BME280;11154;48.558;9.234;2022-08-21T06:15:49;97684.34;;;16.63;100.00
21980;BME280;11154;48.558;9.234;2022-08-21T06:17:52;97683.91;;;16.60;100.00
21980;BME280;11154;48.558;9.234;2022-08-21T06:19:54;97684.59;;;16.68;100.00
21980;BME280;11154;48.558;9.234;2022-08-21T06:21:56;97685.84;;;16.72;100.00
21980;BME280;11154;48.558;9.234;2022-08-21T06:23:58;97685.28;;;16.77;100.00
21980;BME280;11154;48.558;9.234;2022-08-21T06:26:00;97686.38;;;16.89;100.00
21980;BME280;11154;48.558;9.234;2022-08-21T06:28:03;97683.75;;;16.95;100.00
21980;BME280;11154;48.558;9.234;2022-08-21T06:30:07;97686.09;;;17.05;100.00
21980;BME280;11154;48.558;9.234;2022-08-21T06:32:12;97681.94;;;17.02;100.00
21980;BME280;11154;48.558;9.234;2022-08-21T06:34:14;97682.75;;;17.03;100.00
21980;BME280;11154;48.558;9.234;2022-08-21T06:36:16;97685.16;;;17.19;100.00
21980;BME280;11154;48.558;9.234;2022-08-21T06:38:18;97682.47;;;17.19;100.00
21980;BME280;11154;48.558;9.234;2022-08-21T06:40:20;97686.06;;;17.32;100.00
21980;BME280;11154;48.558;9.234;2022-08-21T06:42:21;97673.50;;;17.39;100.00
21980;BME280;11154;48.558;9.234;2022-08-21T06:44:23;97677.63;;;17.41;100.00
21980;BME280;11154;48.558;9.234;2022-08-21T06:46:28;97673.06;;;17.42;100.00
21980;BME280;11154;48.558;9.234;2022-08-21T06:48:31;97674.78;;;17.56;100.00
21980;BME280;11154;48.558;9.234;2022-08-21T06:50:34;97671.31;;;17.62;100.00
21980;BME280;11154;48.558;9.234;2022-08-21T06:52:37;97671.94;;;17.64;100.00
21980;BME280;11154;48.558;9.234;2022-08-21T06:54:39;97683.13;;;17.74;100.00
21980;BME280;11154;48.558;9.234;2022-08-21T06:56:41;97674.06;;;17.88;100.00
21980;BME280;11154;48.558;9.234;2022-08-21T06:58:43;97675.31;;;17.85;100.00
21980;BME280;11154;48.558;9.234;2022-08-21T07:00:47;97672.44;;;17.93;100.00
21980;BME280;11154;48.558;9.234;2022-08-21T07:02:49;97672.88;;;17.97;100.00
21980;BME280;11154;48.558;9.234;2022-08-21T07:04:52;97663.16;;;18.08;100.00
21980;BME280;11154;48.558;9.234;2022-08-21T07:06:54;97662.97;;;18.16;100.00
21980;BME280;11154;48.558;9.234;2022-08-21T07:08:55;97672.34;;;18.27;100.00
21980;BME280;11154;48.558;9.234;2022-08-21T07:10:59;97674.22;;;18.33;100.00
21980;BME280;11154;48.558;9.234;2022-08-21T07:13:01;97681.66;;;18.37;100.00
21980;BME280;11154;48.558;9.234;2022-08-21T07:15:03;97672.34;;;18.46;100.00
21980;BME280;11154;48.558;9.234;2022-08-21T07:17:05;97667.78;;;18.60;100.00
21980;BME280;11154;48.558;9.234;2022-08-21T07:19:06;97664.66;;;18.82;100.00
21980;BME280;11154;48.558;9.234;2022-08-21T07:21:10;97668.19;;;18.83;100.00
21980;BME280;11154;48.558;9.234;2022-08-21T07:23:16;97663.59;;;18.96;100.00
21980;BME280;11154;48.558;9.234;2022-08-21T07:25:19;97673.75;;;19.00;100.00
21980;BME280;11154;48.558;9.234;2022-08-21T07:27:21;97665.03;;;18.98;100.00
21980;BME280;11154;48.558;9.234;2022-08-21T07:29:22;97668.41;;;18.94;100.00
21980;BME280;11154;48.558;9.234;2022-08-21T07:31:25;97662.78;;;18.95;100.00
21980;BME280;11154;48.558;9.234;2022-08-21T07:33:29;97656.97;;;19.11;100.00
21980;BME280;11154;48.558;9.234;2022-08-21T07:35:31;97655.09;;;19.18;100.00
21980;BME280;11154;48.558;9.234;2022-08-21T07:37:34;97654.22;;;19.31;100.00
21980;BME280;11154;48.558;9.234;2022-08-21T07:39:36;97656.72;;;19.39;100.00
21980;BME280;11154;48.558;9.234;2022-08-21T07:41:38;97663.69;;;19.53;100.00
21980;BME280;11154;48.558;9.234;2022-08-21T07:43:41;97655.81;;;19.51;100.00
21980;BME280;11154;48.558;9.234;2022-08-21T07:45:43;97660.34;;;19.63;100.00
21980;BME280;11154;48.558;9.234;2022-08-21T07:47:45;97661.97;;;19.64;100.00
21980;BME280;11154;48.558;9.234;2022-08-21T07:49:46;97648.69;;;19.69;100.00
21980;BME280;11154;48.558;9.234;2022-08-21T07:51:48;97652.94;;;19.83;100.00
21980;BME280;11154;48.558;9.234;2022-08-21T07:53:53;97653.56;;;19.92;100.00
21980;BME280;11154;48.558;9.234;2022-08-21T07:55:56;97652.31;;;19.94;100.00
21980;BME280;11154;48.558;9.234;2022-08-21T07:57:58;97652.75;;;19.85;100.00
21980;BME280;11154;48.558;9.234;2022-08-21T08:00:00;97652.50;;;19.99;100.00
21980;BME280;11154;48.558;9.234;2022-08-21T08:02:02;97653.44;;;20.11;100.00
21980;BME280;11154;48.558;9.234;2022-08-21T08:04:04;97649.09;;;20.10;98.63
21980;BME280;11154;48.558;9.234;2022-08-21T08:06:06;97649.94;;;20.35;99.04
21980;BME280;11154;48.558;9.234;2022-08-21T08:08:12;97648.31;;;20.34;100.00
21980;BME280;11154;48.558;9.234;2022-08-21T08:10:16;97649.13;;;20.34;100.00
21980;BME280;11154;48.558;9.234;2022-08-21T08:12:18;97651.38;;;20.37;100.00
21980;BME280;11154;48.558;9.234;2022-08-21T08:14:20;97646.94;;;20.49;100.00
21980;BME280;11154;48.558;9.234;2022-08-21T08:16:22;97653.72;;;20.58;100.00
21980;BME280;11154;48.558;9.234;2022-08-21T08:18:24;97639.81;;;20.55;94.67
21980;BME280;11154;48.558;9.234;2022-08-21T08:20:26;97646.72;;;20.51;94.89
21980;BME280;11154;48.558;9.234;2022-08-21T08:22:29;97642.69;;;20.60;93.58
21980;BME280;11154;48.558;9.234;2022-08-21T08:24:31;97635.66;;;20.59;91.73
21980;BME280;11154;48.558;9.234;2022-08-21T08:26:34;97636.63;;;20.64;89.57
21980;BME280;11154;48.558;9.234;2022-08-21T08:28:36;97638.00;;;20.73;89.67
21980;BME280;11154;48.558;9.234;2022-08-21T08:30:37;97631.75;;;20.73;83.50
21980;BME280;11154;48.558;9.234;2022-08-21T08:32:39;97629.84;;;20.80;85.03
21980;BME280;11154;48.558;9.234;2022-08-21T08:34:41;97629.16;;;20.91;81.97
21980;BME280;11154;48.558;9.234;2022-08-21T08:36:43;97622.84;;;20.97;79.34
21980;BME280;11154;48.558;9.234;2022-08-21T08:38:46;97625.56;;;21.32;80.86
21980;BME280;11154;48.558;9.234;2022-08-21T08:40:53;97615.78;;;21.13;78.10
21980;BME280;11154;48.558;9.234;2022-08-21T08:43:01;97616.25;;;21.28;80.81
21980;BME280;11154;48.558;9.234;2022-08-21T08:45:05;97616.81;;;21.30;82.97
21980;BME280;11154;48.558;9.234;2022-08-21T08:47:08;97615.53;;;21.33;81.06
21980;BME280;11154;48.558;9.234;2022-08-21T08:49:15;97615.72;;;21.38;82.15
21980;BME280;11154;48.558;9.234;2022-08-21T08:51:24;97615.78;;;21.67;80.28
21980;BME280;11154;48.558;9.234;2022-08-21T08:53:30;97602.09;;;21.62;79.03
21980;BME280;11154;48.558;9.234;2022-08-21T08:55:36;97608.19;;;21.87;78.27
21980;BME280;11154;48.558;9.234;2022-08-21T08:57:42;97608.84;;;22.00;78.09
21980;BME280;11154;48.558;9.234;2022-08-21T08:59:49;97597.94;;;22.18;75.44
21980;BME280;11154;48.558;9.234;2022-08-21T09:01:52;97600.56;;;22.25;74.02
21980;BME280;11154;48.558;9.234;2022-08-21T09:03:54;97605.66;;;22.33;76.60
21980;BME280;11154;48.558;9.234;2022-08-21T09:06:03;97595.00;;;22.20;78.44
21980;BME280;11154;48.558;9.234;2022-08-21T09:08:23;97602.91;;;22.21;73.85
21980;BME280;11154;48.558;9.234;2022-08-21T09:10:38;97597.84;;;22.13;70.04
21980;BME280;11154;48.558;9.234;2022-08-21T09:12:50;97591.06;;;22.04;70.50
21980;BME280;11154;48.558;9.234;2022-08-21T09:15:03;97594.00;;;22.32;69.62
21980;BME280;11154;48.558;9.234;2022-08-21T09:17:16;97590.78;;;22.24;69.36
21980;BME280;11154;48.558;9.234;2022-08-21T09:19:41;97586.06;;;22.19;70.84
21980;BME280;11154;48.558;9.234;2022-08-21T09:21:50;97585.19;;;22.37;72.39
21980;BME280;11154;48.558;9.234;2022-08-21T09:23:59;97580.38;;;22.50;73.89
21980;BME280;11154;48.558;9.234;2022-08-21T09:26:06;97581.91;;;22.57;73.36
21980;BME280;11154;48.558;9.234;2022-08-21T09:28:08;97575.75;;;22.51;71.83
21980;BME280;11154;48.558;9.234;2022-08-21T09:30:14;97578.25;;;22.75;70.37
21980;BME280;11154;48.558;9.234;2022-08-21T09:32:19;97577.66;;;22.84;67.76
21980;BME280;11154;48.558;9.234;2022-08-21T09:34:26;97576.25;;;22.93;68.84
21980;BME280;11154;48.558;9.234;2022-08-21T09:36:37;97579.22;;;23.03;66.34
21980;BME280;11154;48.558;9.234;2022-08-21T09:38:39;97576.03;;;23.06;65.57
21980;BME280;11154;48.558;9.234;2022-08-21T09:40:45;97570.72;;;23.11;64.36
21980;BME280;11154;48.558;9.234;2022-08-21T09:42:54;97577.41;;;22.97;64.49
21980;BME280;11154;48.558;9.234;2022-08-21T09:45:11;97576.50;;;23.03;66.08
21980;BME280;11154;48.558;9.234;2022-08-21T09:47:18;97584.53;;;23.10;66.68
21980;BME280;11154;48.558;9.234;2022-08-21T09:49:28;97579.66;;;23.12;66.05
21980;BME280;11154;48.558;9.234;2022-08-21T09:51:31;97579.06;;;23.21;67.36
21980;BME280;11154;48.558;9.234;2022-08-21T09:53:34;97580.94;;;23.32;66.59
21980;BME280;11154;48.558;9.234;2022-08-21T09:57:58;97577.56;;;23.02;57.56
21980;BME280;11154;48.558;9.234;2022-08-21T10:00:09;97572.25;;;23.07;54.27
21980;BME280;11154;48.558;9.234;2022-08-21T10:02:28;97579.31;;;23.20;59.21
21980;BME280;11154;48.558;9.234;2022-08-21T10:04:32;97567.22;;;23.38;58.55
21980;BME280;11154;48.558;9.234;2022-08-21T10:06:34;97573.63;;;23.32;58.75
21980;BME280;11154;48.558;9.234;2022-08-21T10:08:38;97558.97;;;23.45;55.35
21980;BME280;11154;48.558;9.234;2022-08-21T10:10:40;97562.66;;;23.55;58.00
21980;BME280;11154;48.558;9.234;2022-08-21T10:12:49;97555.09;;;23.69;58.62
21980;BME280;11154;48.558;9.234;2022-08-21T10:15:03;97558.38;;;23.43;52.75
21980;BME280;11154;48.558;9.234;2022-08-21T10:17:17;97551.56;;;23.29;53.02
21980;BME280;11154;48.558;9.234;2022-08-21T10:19:32;97549.91;;;23.28;54.24
21980;BME280;11154;48.558;9.234;2022-08-21T10:21:41;97543.75;;;23.32;55.68
21980;BME280;11154;48.558;9.234;2022-08-21T10:23:58;97543.56;;;23.23;55.16
21980;BME280;11154;48.558;9.234;2022-08-21T10:26:05;97546.03;;;23.24;56.33
21980;BME280;11154;48.558;9.234;2022-08-21T10:28:14;97533.66;;;23.56;56.18
21980;BME280;11154;48.558;9.234;2022-08-21T10:30:27;97543.13;;;23.42;55.27
21980;BME280;11154;48.558;9.234;2022-08-21T10:32:47;97539.53;;;23.53;55.90
21980;BME280;11154;48.558;9.234;2022-08-21T10:34:58;97542.16;;;23.48;55.54
21980;BME280;11154;48.558;9.234;2022-08-21T10:37:11;97541.78;;;23.56;53.12
21980;BME280;11154;48.558;9.234;2022-08-21T10:39:23;97543.19;;;23.58;51.62
21980;BME280;11154;48.558;9.234;2022-08-21T10:41:38;97538.00;;;23.57;53.02
21980;BME280;11154;48.558;9.234;2022-08-21T10:43:50;97535.31;;;23.57;52.96
21980;BME280;11154;48.558;9.234;2022-08-21T10:45:59;97532.97;;;23.49;52.04
21980;BME280;11154;48.558;9.234;2022-08-21T10:48:05;97537.25;;;23.73;53.33
21980;BME280;11154;48.558;9.234;2022-08-21T10:52:41;97531.56;;;23.74;51.84
21980;BME280;11154;48.558;9.234;2022-08-21T10:54:52;97535.81;;;23.70;51.48